Terminal Aerodrome Forecast
Issued by NWS Portland, OR

Home | Current Version | Previous Version | Text Only | Print | Product List | Glossary On
Versions: 1 2 3 4 5 6 7 8 9 10 11 12 13 14 15 16 17 18 19 20 21 22 23
000
FTUS46 KPQR 191742
TAFSLE
TAF
KSLE 191742Z 1918/2018 18011KT P6SM -RA SCT015 OVC025
      TEMPO 1918/1922 3SM RA BR BKN015 OVC040
     FM192200 18011KT 5SM -RA BR SCT015 OVC025
     FM200500 18010KT 6SM -RA BR SCT020 OVC050=

USA.gov is the U.S. government's official web portal to all federal, state and local government web resources and services.